createdAt,value
2023-01-03T00:01:07.221Z,9.41
2023-01-03T00:06:39.325Z,9.40
2023-01-03T00:12:00.478Z,9.40
2023-01-03T00:17:04.008Z,9.37
2023-01-03T00:22:05.764Z,9.38
2023-01-03T00:27:07.330Z,9.38
2023-01-03T00:32:08.953Z,9.45
2023-01-03T00:37:10.587Z,9.54
2023-01-03T00:42:12.803Z,9.61
2023-01-03T00:47:14.288Z,9.66
2023-01-03T00:52:15.818Z,9.70
2023-01-03T00:57:17.290Z,9.77
2023-01-03T01:02:20.394Z,9.83
2023-01-03T01:07:21.965Z,9.81
2023-01-03T01:12:23.416Z,9.77
2023-01-03T01:17:24.856Z,9.65
2023-01-03T01:22:26.317Z,9.48
2023-01-03T01:27:27.755Z,9.28
2023-01-03T01:32:30.408Z,9.12
2023-01-03T01:37:31.825Z,9.05
2023-01-03T01:42:51.917Z,9.05
2023-01-03T01:48:00.460Z,9.08
2023-01-03T01:53:09.269Z,9.08
2023-01-03T01:58:12.632Z,9.01
2023-01-03T02:03:14.153Z,8.94
2023-01-03T02:08:16.028Z,8.89
2023-01-03T02:13:52.297Z,8.77
2023-01-03T02:19:12.016Z,8.71
2023-01-03T02:24:38.686Z,8.65
2023-01-03T02:30:04.359Z,8.61
2023-01-03T02:35:53.406Z,8.53
2023-01-03T02:41:04.289Z,8.45
2023-01-03T02:46:36.492Z,8.32
2023-01-03T02:51:47.646Z,8.14
2023-01-03T02:56:56.330Z,8.01
2023-01-03T03:01:59.566Z,7.97
2023-01-03T03:07:07.723Z,7.94
2023-01-03T03:12:28.984Z,7.92
2023-01-03T03:17:30.899Z,7.87
2023-01-03T03:23:10.139Z,7.76
2023-01-03T03:28:34.478Z,7.63
2023-01-03T03:33:48.842Z,7.56
2023-01-03T03:38:50.680Z,7.45
2023-01-03T03:44:16.136Z,7.30
2023-01-03T03:49:37.953Z,7.09
2023-01-03T03:54:44.321Z,7.07
2023-01-03T03:59:52.186Z,7.07
2023-01-03T04:04:59.116Z,6.97
2023-01-03T04:10:00.809Z,6.88
2023-01-03T04:15:03.849Z,6.82
2023-01-03T04:20:05.787Z,6.79
2023-01-03T04:25:07.792Z,6.80
2023-01-03T04:30:11.481Z,6.93
2023-01-03T04:35:12.967Z,7.21
2023-01-03T04:40:15.166Z,7.39
2023-01-03T04:45:17.078Z,7.47
2023-01-03T04:50:18.659Z,7.57
2023-01-03T04:55:20.623Z,7.66
2023-01-03T05:00:22.136Z,7.70
2023-01-03T05:05:23.589Z,7.67
2023-01-03T05:10:25.053Z,7.59
2023-01-03T05:15:28.144Z,7.46
2023-01-03T05:20:48.286Z,7.31
2023-01-03T05:25:51.115Z,7.19
2023-01-03T05:30:53.726Z,7.23
2023-01-03T05:35:55.329Z,7.20
2023-01-03T05:40:56.961Z,7.09
2023-01-03T05:45:58.603Z,6.95
2023-01-03T05:51:00.141Z,6.87
2023-01-03T05:56:06.325Z,6.78
2023-01-03T06:01:11.962Z,6.68
2023-01-03T06:06:15.097Z,6.59
2023-01-03T06:11:19.168Z,6.52
2023-01-03T06:16:39.627Z,6.45
2023-01-03T06:21:41.648Z,6.39
2023-01-03T06:26:43.192Z,6.33
2023-01-03T06:31:44.618Z,6.29
2023-01-03T06:36:46.060Z,6.25
2023-01-03T06:41:47.513Z,6.26
2023-01-03T06:47:07.526Z,6.25
2023-01-03T06:52:32.841Z,6.23
2023-01-03T06:57:34.336Z,6.27
2023-01-03T07:02:35.954Z,6.30
2023-01-03T07:07:37.630Z,6.29
2023-01-03T07:12:57.601Z,6.23
2023-01-03T07:17:59.080Z,6.17
2023-01-03T07:23:00.486Z,6.13
2023-01-03T07:28:06.364Z,6.10
2023-01-03T07:33:11.871Z,6.14
2023-01-03T07:38:13.732Z,6.21
2023-01-03T07:43:33.577Z,6.27
2023-01-03T07:48:35.820Z,6.35
2023-01-03T07:53:38.271Z,6.46
2023-01-03T07:58:41.886Z,6.55
2023-01-03T08:03:43.716Z,6.51
2023-01-03T08:08:45.742Z,6.53
2023-01-03T08:13:47.565Z,6.58
2023-01-03T08:18:49.087Z,6.66
2023-01-03T08:23:50.632Z,6.74
2023-01-03T08:28:52.222Z,6.86
2023-01-03T08:34:01.788Z,6.93
2023-01-03T08:39:09.395Z,7.08
2023-01-03T08:44:11.371Z,7.23
2023-01-03T08:49:13.536Z,7.30
2023-01-03T08:54:15.000Z,7.33
2023-01-03T08:59:16.445Z,7.38
2023-01-03T09:04:18.080Z,7.20
2023-01-03T09:09:19.722Z,7.17
2023-01-03T09:14:21.358Z,7.18
2023-01-03T09:19:23.026Z,7.27
2023-01-03T09:24:24.470Z,7.48
2023-01-03T09:29:25.980Z,7.72
2023-01-03T09:34:27.407Z,8.13
2023-01-03T09:39:28.823Z,9.40
2023-01-03T09:44:30.284Z,11.07
2023-01-03T09:49:32.786Z,12.56
2023-01-03T09:54:58.144Z,14.08
2023-01-03T10:00:19.172Z,14.21
2023-01-03T10:05:42.687Z,14.67
2023-01-03T10:10:58.186Z,15.31
2023-01-03T10:16:11.213Z,16.37
2023-01-03T10:21:50.460Z,17.09
2023-01-03T10:27:14.007Z,17.76
2023-01-03T10:32:27.363Z,18.63
2023-01-03T10:37:29.071Z,19.18
2023-01-03T10:42:34.543Z,19.63
2023-01-03T10:47:36.120Z,20.36
2023-01-03T10:52:40.877Z,20.76
2023-01-03T10:57:48.373Z,21.15
2023-01-03T11:02:51.316Z,21.20
2023-01-03T11:07:59.920Z,20.82
2023-01-03T11:13:01.377Z,20.57
2023-01-03T11:18:05.869Z,20.58
2023-01-03T11:23:49.893Z,20.59
2023-01-03T11:29:15.255Z,20.30
2023-01-03T11:34:48.221Z,19.66
2023-01-03T11:40:21.516Z,19.66
2023-01-03T11:45:32.162Z,19.37
2023-01-03T11:50:54.778Z,18.86
2023-01-03T11:56:22.560Z,18.57
2023-01-03T12:01:39.092Z,18.11
2023-01-03T12:07:47.071Z,17.40
2023-01-03T12:12:58.593Z,16.55
2023-01-03T12:18:06.648Z,15.87
2023-01-03T12:23:30.155Z,15.42
2023-01-03T12:28:48.479Z,15.32
2023-01-03T12:34:11.912Z,15.08
2023-01-03T12:39:33.856Z,14.93
2023-01-03T12:44:40.161Z,14.46
2023-01-03T12:49:50.096Z,14.11
2023-01-03T12:55:19.400Z,13.83
2023-01-03T13:00:57.536Z,13.69
2023-01-03T13:06:05.279Z,13.48
2023-01-03T13:11:30.155Z,13.30
2023-01-03T13:16:34.465Z,13.23
2023-01-03T13:21:54.204Z,13.01
2023-01-03T13:27:17.146Z,12.87
2023-01-03T13:32:21.561Z,12.75
2023-01-03T13:37:43.511Z,12.70
2023-01-03T13:42:45.441Z,12.62
2023-01-03T13:47:52.517Z,12.52
2023-01-03T13:52:58.634Z,12.44
2023-01-03T13:58:00.668Z,12.37
2023-01-03T14:03:24.643Z,12.27
2023-01-03T14:08:50.014Z,12.17
2023-01-03T14:14:00.785Z,12.07
2023-01-03T14:19:22.688Z,12.00
2023-01-03T14:24:27.759Z,11.96
2023-01-03T14:29:29.354Z,11.92
2023-01-03T14:34:34.408Z,11.84
2023-01-03T14:44:36.325Z,11.64
2023-01-03T14:49:43.735Z,11.60
2023-01-03T14:54:49.125Z,11.64
2023-01-03T14:59:52.520Z,11.62
2023-01-03T15:04:57.549Z,11.49
2023-01-03T15:10:17.361Z,11.30
2023-01-03T15:15:23.780Z,11.12
2023-01-03T15:20:37.607Z,10.95
2023-01-03T15:25:41.524Z,10.81
2023-01-03T15:30:49.965Z,10.66
2023-01-03T15:35:54.306Z,10.54
2023-01-03T15:40:56.096Z,10.41
2023-01-03T15:46:11.205Z,10.28
2023-01-03T15:51:12.777Z,10.16
2023-01-03T15:56:19.327Z,10.02
2023-01-03T16:01:22.474Z,9.87
2023-01-03T16:06:24.005Z,9.74
2023-01-03T16:11:33.649Z,9.62
2023-01-03T16:16:38.216Z,9.49
2023-01-03T16:21:39.684Z,9.40
2023-01-03T16:26:41.419Z,9.33
2023-01-03T16:31:44.986Z,9.23
2023-01-03T16:36:47.674Z,9.07
2023-01-03T16:42:08.673Z,8.87
2023-01-03T16:47:15.336Z,8.63
2023-01-03T16:52:25.235Z,8.38
2023-01-03T16:57:28.475Z,8.11
2023-01-03T17:02:30.136Z,8.00
2023-01-03T17:07:31.766Z,7.92
2023-01-03T17:12:33.843Z,7.82
2023-01-03T17:17:35.249Z,7.71
2023-01-03T17:22:36.726Z,7.47
2023-01-03T17:27:38.202Z,7.28
2023-01-03T17:32:39.623Z,7.19
2023-01-03T17:38:13.956Z,7.14
2023-01-03T17:43:03.078Z,7.05
2023-01-03T17:48:23.312Z,6.95
2023-01-03T17:53:25.666Z,6.86
2023-01-03T17:58:35.969Z,6.79
2023-01-03T18:03:38.337Z,6.72
2023-01-03T18:08:40.863Z,6.59
2023-01-03T18:13:42.569Z,6.44
2023-01-03T18:18:44.583Z,6.36
2023-01-03T18:23:46.527Z,6.50
2023-01-03T18:28:48.077Z,6.65
2023-01-03T18:33:49.556Z,6.71
2023-01-03T18:38:52.534Z,6.99
2023-01-03T18:43:54.016Z,7.25
2023-01-03T18:48:55.633Z,7.42
2023-01-03T18:53:58.846Z,7.59
2023-01-03T18:59:17.323Z,7.75
2023-01-03T19:04:18.803Z,7.87
2023-01-03T19:09:22.850Z,7.93
2023-01-03T19:14:24.362Z,8.00
2023-01-03T19:19:25.813Z,8.00
2023-01-03T19:24:39.362Z,7.94
2023-01-03T19:29:41.610Z,7.88
2023-01-03T19:34:43.183Z,7.94
2023-01-03T19:39:44.626Z,7.98
2023-01-03T19:44:47.489Z,7.94
2023-01-03T19:49:49.056Z,7.78
2023-01-03T19:54:50.526Z,7.64
2023-01-03T19:59:56.678Z,7.61
2023-01-03T20:04:58.369Z,7.47
2023-01-03T20:09:59.880Z,7.41
2023-01-03T20:15:06.762Z,7.35
2023-01-03T20:20:10.211Z,7.32
2023-01-03T20:25:27.134Z,7.35
2023-01-03T20:30:31.176Z,7.43
2023-01-03T20:40:54.896Z,7.26
2023-01-03T20:45:58.317Z,7.16
2023-01-03T20:50:59.880Z,7.08
2023-01-03T20:56:01.288Z,6.99
2023-01-03T21:01:05.166Z,6.88
2023-01-03T21:06:18.614Z,6.69
2023-01-03T21:11:30.744Z,6.53
2023-01-03T21:16:36.535Z,6.44
2023-01-03T21:21:38.589Z,6.40
2023-01-03T21:26:40.091Z,6.25
2023-01-03T21:31:43.044Z,6.15
2023-01-03T21:36:44.662Z,6.18
2023-01-03T21:42:04.493Z,6.19
2023-01-03T21:47:05.971Z,6.10
2023-01-03T21:52:07.425Z,6.04
2023-01-03T21:57:08.951Z,5.98
2023-01-03T22:02:31.193Z,5.95
2023-01-03T22:07:32.747Z,5.96
2023-01-03T22:12:34.396Z,5.99
2023-01-03T22:17:36.540Z,6.03
2023-01-03T22:22:39.789Z,6.02
2023-01-03T22:27:42.344Z,5.97
2023-01-03T22:32:44.572Z,5.84
2023-01-03T22:37:46.113Z,5.85
2023-01-03T22:42:47.617Z,5.87
2023-01-03T22:47:49.104Z,5.82
2023-01-03T22:52:50.841Z,5.73
2023-01-03T22:57:52.295Z,5.61
2023-01-03T23:02:53.826Z,5.52
2023-01-03T23:07:55.316Z,5.48
2023-01-03T23:12:59.779Z,5.49
2023-01-03T23:18:01.202Z,5.48
2023-01-03T23:23:02.936Z,5.39
2023-01-03T23:28:04.742Z,5.28
2023-01-03T23:33:06.199Z,5.31
2023-01-03T23:38:07.650Z,5.35
2023-01-03T23:43:10.561Z,5.34
2023-01-03T23:48:12.051Z,5.37
2023-01-03T23:53:13.602Z,5.34
2023-01-03T23:58:15.079Z,5.31
